Rochester, Minnesota
Current Conditions -  °F | °C
As of 5:54 PM on Saturday 20 Dec 2014 (Local Time) from KRST Reporting Station
Haze Haze  
Wind Chill: 21°   Ceiling: 900
Heat Index: 30°   Visibility: 6mi
Dew Point: 28°   Wind: 10mph
Humidity: 92%   Direction: 190°S
Pressure: 30.13"   Gusts: NA
Location:  44.02°N, 92.46°W
Report Text: KRST 202354Z 19009KT 6SM BR OVC009 M01/M02 A3013 RMK AO2 CIG 007V011 SLP220 I6002 T10111022 11011 21011 51003
Loading
Personal Weather Stations






























Interactive Weather Map New forecast layout! Learn more

10-Day Weather Forecast

Advertisements
Track Severe Weather on mobile